Time;durP1;ratioP1;P1;durP2;ratioP2;P2;SDS_P1;SDS_P2;PMS_P1;PMS_P2;Temp;Humidity;BMP_temperature;BMP_pressure;BME280_temperature;BME280_humidity;BME280_pressure;Samples;Min_cycle;Max_cycle;Signal;HPM_P1;HPM_P2
2022/12/02 00:02:31;;;;;;;2.10;1.75;;;;;;;4.68;62.30;100566.59;4357703;32;34111;-82
2022/12/02 00:05:30;;;;;;;1.95;1.85;;;;;;;4.72;62.25;100570.91;4364210;32;32971;-82
2022/12/02 00:08:15;;;;;;;1.35;1.33;;;;;;;4.82;61.73;100564.72;4354520;32;32670;-83
2022/12/02 00:10:44;;;;;;;3.05;2.85;;;;;;;4.90;61.78;100566.44;4372804;32;33284;-83
2022/12/02 00:13:30;;;;;;;0.73;0.70;;;;;;;4.68;62.48;100571.81;4359047;32;33079;-83
2022/12/02 00:16:01;;;;;;;5.60;3.83;;;;;;;4.69;62.37;100568.31;4363928;32;32317;-82
2022/12/02 00:18:29;;;;;;;3.25;2.25;;;;;;;4.75;62.11;100573.53;4350865;32;198508;-82
2022/12/02 00:20:57;;;;;;;1.83;1.73;;;;;;;4.71;61.95;100566.56;4380464;32;33316;-82
2022/12/02 00:23:24;;;;;;;4.40;4.00;;;;;;;4.96;61.30;100561.12;4373156;32;32128;-83
2022/12/02 00:25:53;;;;;;;4.35;2.65;;;;;;;4.81;61.65;100560.38;4369108;32;33708;-82
2022/12/02 00:28:22;;;;;;;2.62;2.53;;;;;;;4.70;62.10;100567.47;4369488;32;34400;-83
2022/12/02 00:30:49;;;;;;;1.62;1.55;;;;;;;4.81;61.82;100563.00;4361888;32;32028;-83
2022/12/02 00:33:17;;;;;;;1.98;1.87;;;;;;;4.75;62.59;100570.91;4349419;32;33323;-83
2022/12/02 00:35:45;;;;;;;4.03;2.90;;;;;;;4.87;62.03;100568.16;4340777;32;33094;-83
2022/12/02 00:38:13;;;;;;;2.03;1.92;;;;;;;4.81;62.15;100568.22;4355251;32;32754;-83
2022/12/02 00:40:41;;;;;;;3.17;2.87;;;;;;;4.83;62.02;100565.59;4344814;32;33814;-83
2022/12/02 00:48:42;;;;;;;3.08;2.85;;;;;;;5.01;61.50;100564.56;4357899;32;33322;-83
2022/12/02 00:51:10;;;;;;;6.25;2.22;;;;;;;4.92;61.80;100565.50;4355485;32;32605;-83
2022/12/02 00:53:37;;;;;;;2.65;1.90;;;;;;;4.80;62.28;100558.66;4353731;32;33890;-82
2022/12/02 00:56:05;;;;;;;2.05;1.90;;;;;;;4.83;62.01;100561.22;4353904;32;33729;-83
2022/12/02 00:58:33;;;;;;;3.33;3.08;;;;;;;4.79;62.31;100559.50;4355212;32;32401;-83
2022/12/02 01:01:01;;;;;;;3.40;3.05;;;;;;;4.77;62.64;100556.03;4354373;32;32707;-83
2022/12/02 01:03:28;;;;;;;2.50;2.33;;;;;;;4.95;62.16;100551.56;4369140;32;32675;-83
2022/12/02 01:05:56;;;;;;;1.95;1.77;;;;;;;4.86;62.37;100549.88;4345538;32;32463;-83
2022/12/02 01:08:26;;;;;;;2.40;2.20;;;;;;;5.05;61.63;100553.19;4355189;32;32478;-84
2022/12/02 01:10:54;;;;;;;5.62;2.83;;;;;;;5.05;60.72;100543.59;4362696;32;32686;-84
2022/12/02 01:13:24;;;;;;;0.52;0.52;;;;;;;5.10;60.90;100548.78;4345112;32;32775;-83
2022/12/02 01:15:52;;;;;;;1.77;1.70;;;;;;;5.21;60.42;100539.06;4333303;32;33409;-84
2022/12/02 01:18:20;;;;;;;3.22;2.92;;;;;;;4.71;62.03;100542.16;4348708;32;33518;-84
2022/12/02 01:20:47;;;;;;;5.20;2.12;;;;;;;4.83;61.80;100545.53;4356729;32;33198;-84
2022/12/02 01:23:15;;;;;;;6.35;4.05;;;;;;;4.82;61.76;100538.56;4358125;32;33030;-83
2022/12/02 01:25:43;;;;;;;3.20;2.65;;;;;;;4.64;62.52;100543.94;4341774;32;33059;-84
2022/12/02 01:28:11;;;;;;;3.58;3.28;;;;;;;4.77;62.18;100535.13;4355140;32;34600;-83
2022/12/02 01:30:39;;;;;;;3.60;2.17;;;;;;;4.70;62.27;100541.28;4370059;32;33426;-84
2022/12/02 01:33:06;;;;;;;1.08;1.08;;;;;;;4.82;61.92;100537.69;4364380;32;33544;-83
2022/12/02 01:35:34;;;;;;;0.98;0.98;;;;;;;5.13;60.69;100533.06;4364089;32;32146;-82
2022/12/02 01:38:02;;;;;;;5.15;3.35;;;;;;;5.06;60.58;100531.38;4371440;32;33624;-82
2022/12/02 01:40:30;;;;;;;0.40;0.40;;;;;;;4.71;61.50;100526.47;4368275;32;33590;-81
2022/12/02 01:42:58;;;;;;;6.32;2.78;;;;;;;4.94;61.10;100526.25;4383852;32;34178;-82
2022/12/02 01:45:30;;;;;;;1.42;1.35;;;;;;;4.70;61.86;100522.09;4360201;32;34185;-81
2022/12/02 01:47:59;;;;;;;1.00;0.90;;;;;;;4.63;62.20;100522.16;4348603;32;33827;-82
2022/12/02 01:50:28;;;;;;;3.25;2.70;;;;;;;4.69;62.40;100523.84;4358288;32;32601;-82
2022/12/02 01:52:56;;;;;;;2.42;1.58;;;;;;;4.75;62.66;100525.56;4357870;32;33614;-82
2022/12/02 01:55:26;;;;;;;0.43;0.43;;;;;;;4.88;62.52;100525.41;4347361;32;33034;-82
2022/12/02 01:57:55;;;;;;;0.90;0.90;;;;;;;4.88;63.00;100521.94;4371235;32;33744;-83
2022/12/02 02:00:23;;;;;;;0.40;0.40;;;;;;;4.74;63.49;100519.44;4370412;32;32505;-83
2022/12/02 02:02:51;;;;;;;1.65;1.17;;;;;;;5.05;62.95;100519.16;4356615;32;33842;-83
2022/12/02 02:05:29;;;;;;;1.25;1.20;;;;;;;4.95;63.06;100518.41;4359999;32;33059;-82
2022/12/02 02:08:04;;;;;;;0.62;0.57;;;;;;;5.02;63.01;100516.56;4377516;32;33419;-82
2022/12/02 02:10:32;;;;;;;1.92;1.27;;;;;;;5.02;62.87;100521.81;4358499;32;32777;-82
2022/12/02 02:13:01;;;;;;;0.73;0.73;;;;;;;5.12;62.59;100526.06;4372616;32;34309;-82
2022/12/02 02:15:29;;;;;;;2.85;2.62;;;;;;;5.13;62.75;100519.97;4369011;32;33467;-83
2022/12/02 02:17:57;;;;;;;1.87;1.75;;;;;;;5.37;62.04;100527.56;4371049;32;33752;-82
2022/12/02 02:20:32;;;;;;;0.62;0.62;;;;;;;5.30;62.20;100525.88;4370524;32;33264;-82
2022/12/02 02:23:07;;;;;;;2.17;1.98;;;;;;;5.29;62.02;100529.41;4361290;32;33253;-81
2022/12/02 02:25:43;;;;;;;0.22;0.22;;;;;;;5.23;61.98;100534.69;4354015;32;33026;-82
2022/12/02 02:28:11;;;;;;;1.65;1.55;;;;;;;5.28;62.03;100525.03;4346027;32;33377;-81
2022/12/02 02:30:39;;;;;;;1.40;1.00;;;;;;;5.37;61.80;100532.81;4384901;32;34151;-82
2022/12/02 02:33:08;;;;;;;2.45;2.25;;;;;;;5.27;61.58;100535.50;4370112;32;32403;-82
2022/12/02 02:35:37;;;;;;;0.57;0.57;;;;;;;5.22;61.70;100532.06;4357598;32;34284;-82
2022/12/02 02:38:06;;;;;;;1.05;1.05;;;;;;;5.31;61.27;100537.22;4372458;32;33333;-82
2022/12/02 02:40:34;;;;;;;5.65;1.65;;;;;;;5.30;61.42;100536.34;4358908;32;33402;-82
2022/12/02 02:43:03;;;;;;;0.60;0.60;;;;;;;5.57;60.69;100534.34;4371716;32;33893;-83
2022/12/02 02:45:33;;;;;;;4.22;1.20;;;;;;;5.53;60.66;100540.50;4375986;32;34053;-82
2022/12/02 02:48:04;;;;;;;0.88;0.88;;;;;;;5.66;59.98;100531.59;4362025;32;33367;-82
2022/12/02 02:50:34;;;;;;;2.37;2.15;;;;;;;5.35;61.07;100537.19;4373095;32;33013;-82
2022/12/02 02:53:02;;;;;;;1.10;1.10;;;;;;;5.46;60.30;100525.72;4370024;32;33949;-82
2022/12/02 02:55:31;;;;;;;0.30;0.30;;;;;;;5.35;60.83;100526.69;4369065;32;34359;-82
2022/12/02 02:58:26;;;;;;;0.05;0.05;;;;;;;4.77;62.26;100524.66;4368286;32;33545;-83
2022/12/02 03:00:57;;;;;;;2.05;1.12;;;;;;;4.88;62.04;100524.53;4354683;32;33450;-83
2022/12/02 03:03:27;;;;;;;1.15;1.08;;;;;;;5.00;61.29;100516.59;4371844;32;32757;-83
2022/12/02 03:05:56;;;;;;;2.12;0.82;;;;;;;5.10;61.06;100517.38;4369785;32;32715;-83
2022/12/02 03:08:25;;;;;;;0.37;0.37;;;;;;;5.09;61.10;100521.75;4357588;32;33763;-82
2022/12/02 03:10:54;;;;;;;2.47;2.00;;;;;;;5.16;60.79;100517.31;4364047;32;33338;-82
2022/12/02 03:13:21;;;;;;;2.05;1.77;;;;;;;4.98;60.98;100522.72;4356799;32;33823;-82
2022/12/02 03:15:49;;;;;;;2.70;0.98;;;;;;;5.08;61.01;100513.88;4358046;32;33020;-83
2022/12/02 03:18:17;;;;;;;2.50;2.15;;;;;;;5.31;60.47;100514.50;4347372;32;33284;-82
2022/12/02 03:20:45;;;;;;;2.08;1.45;;;;;;;5.10;61.09;100520.00;4370485;32;34916;-82
2022/12/02 03:23:13;;;;;;;2.50;2.28;;;;;;;5.25;60.61;100516.34;4371527;32;32452;-82
2022/12/02 03:25:41;;;;;;;0.70;0.65;;;;;;;5.21;60.68;100515.50;4369782;32;33553;-82
2022/12/02 03:28:10;;;;;;;2.85;2.62;;;;;;;5.35;60.57;100517.97;4369258;32;33106;-82
2022/12/02 03:30:39;;;;;;;0.57;0.57;;;;;;;5.23;60.39;100516.38;4357045;32;32841;-81
2022/12/02 03:33:06;;;;;;;1.12;1.12;;;;;;;5.14;60.77;100517.34;4369976;32;33078;-82
2022/12/02 03:35:34;;;;;;;3.03;2.60;;;;;;;5.23;60.58;100508.53;4372216;32;33304;-82
2022/12/02 03:38:02;;;;;;;4.43;2.05;;;;;;;4.55;61.96;100512.63;4367262;32;32719;-82
2022/12/02 03:40:30;;;;;;;0.52;0.45;;;;;;;4.78;61.97;100513.28;4383688;32;33722;-82
2022/12/02 03:42:58;;;;;;;0.98;0.98;;;;;;;5.03;61.04;100513.06;4376100;32;32764;-82
2022/12/02 03:45:26;;;;;;;2.28;1.08;;;;;;;4.87;61.23;100514.97;4355325;32;34458;-83
2022/12/02 03:47:54;;;;;;;0.95;0.95;;;;;;;5.09;61.04;100511.28;4360717;32;32728;-83
2022/12/02 03:50:22;;;;;;;0.68;0.68;;;;;;;5.10;60.98;100512.13;4357938;32;32703;-83
2022/12/02 03:52:50;;;;;;;0.60;0.60;;;;;;;5.38;60.14;100500.50;4357236;32;32761;-83
2022/12/02 03:55:17;;;;;;;1.52;0.93;;;;;;;5.11;60.57;100511.25;4358024;32;34720;-83
2022/12/02 03:57:45;;;;;;;0.65;0.65;;;;;;;5.05;60.72;100509.56;4345175;32;33068;-83
2022/12/02 04:00:13;;;;;;;2.55;1.80;;;;;;;5.23;60.36;100513.75;4383196;32;33510;-83
2022/12/02 04:02:43;;;;;;;4.65;2.37;;;;;;;5.04;60.60;100518.31;4358046;32;32200;-82
2022/12/02 04:05:10;;;;;;;2.55;1.55;;;;;;;4.97;60.76;100519.22;4356640;32;33213;-82
2022/12/02 04:07:38;;;;;;;0.65;0.65;;;;;;;5.29;60.08;100521.53;4371459;32;33335;-82
2022/12/02 04:10:06;;;;;;;2.30;1.52;;;;;;;5.36;59.62;100519.72;4371623;32;33173;-82
2022/12/02 04:12:34;;;;;;;0.22;0.22;;;;;;;5.31;59.70;100522.38;4370933;32;33865;-82
2022/12/02 04:15:02;;;;;;;1.33;1.08;;;;;;;5.44;59.40;100517.88;4370666;32;33243;-82
2022/12/02 04:17:30;;;;;;;0.65;0.65;;;;;;;5.47;59.51;100522.22;4362048;32;34613;-82
2022/12/02 04:19:57;;;;;;;0.40;0.40;;;;;;;5.44;59.71;100522.25;4357430;32;33389;-83
2022/12/02 04:22:25;;;;;;;1.45;1.30;;;;;;;5.40;59.57;100514.41;4359703;32;33320;-83
2022/12/02 04:24:52;;;;;;;1.40;1.30;;;;;;;5.39;59.38;100512.69;4382501;32;33638;-83
2022/12/02 04:27:20;;;;;;;1.70;1.60;;;;;;;5.67;58.86;100514.13;4358580;32;33138;-83
2022/12/02 04:29:47;;;;;;;0.65;0.65;;;;;;;5.58;58.78;100509.88;4369793;32;32734;-83
2022/12/02 04:32:15;;;;;;;2.22;2.12;;;;;;;5.51;59.02;100513.47;4363207;32;32408;-83
2022/12/02 04:34:43;;;;;;;1.37;1.27;;;;;;;5.67;58.77;100514.13;4357734;32;33291;-82
2022/12/02 04:37:10;;;;;;;0.88;0.85;;;;;;;5.62;58.55;100511.56;4382825;32;33309;-83
2022/12/02 04:39:38;;;;;;;0.68;0.68;;;;;;;5.21;59.90;100520.75;4379064;32;32035;-83
2022/12/02 04:42:05;;;;;;;1.48;1.48;;;;;;;5.51;59.34;100521.31;4363478;32;33987;-84
2022/12/02 04:44:33;;;;;;;0.32;0.32;;;;;;;5.46;59.43;100520.47;4343391;32;34219;-83
2022/12/02 04:47:01;;;;;;;3.92;2.17;;;;;;;5.39;59.50;100520.53;4350786;32;33677;-83
2022/12/02 04:49:28;;;;;;;0.62;0.62;;;;;;;5.39;59.26;100525.78;4381395;32;32158;-82
2022/12/02 04:51:56;;;;;;;0.20;0.20;;;;;;;5.43;59.54;100517.91;4344484;32;33167;-82
2022/12/02 04:54:24;;;;;;;7.50;2.42;;;;;;;5.55;59.07;100521.22;4368357;32;35930;-82
2022/12/02 04:56:51;;;;;;;3.80;0.80;;;;;;;5.73;58.62;100514.03;4362168;32;33432;-82
2022/12/02 04:59:19;;;;;;;1.12;1.12;;;;;;;5.68;58.15;100511.47;4371229;32;33921;-82
2022/12/02 05:01:47;;;;;;;2.95;1.85;;;;;;;5.47;59.17;100517.00;4363268;32;34507;-82
2022/12/02 05:04:15;;;;;;;5.35;2.20;;;;;;;5.57;59.13;100519.47;4343393;32;32311;-82
2022/12/02 05:06:42;;;;;;;2.15;0.93;;;;;;;5.63;58.88;100514.16;4358241;32;32382;-83
2022/12/02 05:09:10;;;;;;;3.83;1.40;;;;;;;5.63;58.77;100513.28;4358918;32;31989;-82
2022/12/02 05:11:38;;;;;;;1.15;1.15;;;;;;;5.51;59.22;100523.94;4367442;32;32601;-83
2022/12/02 05:14:06;;;;;;;1.20;1.10;;;;;;;5.63;59.11;100523.78;4355700;32;33809;-82
2022/12/02 05:16:34;;;;;;;0.85;0.85;;;;;;;5.74;58.74;100521.87;4369364;32;33551;-82
2022/12/02 05:19:01;;;;;;;1.12;1.00;;;;;;;5.61;58.88;100515.06;4356752;32;32472;-83
2022/12/02 05:21:29;;;;;;;0.62;0.62;;;;;;;5.65;59.04;100522.03;4374668;32;34588;-83
2022/12/02 05:23:57;;;;;;;3.12;2.05;;;;;;;5.70;58.84;100521.94;4369321;32;33976;-83
2022/12/02 05:26:24;;;;;;;1.65;1.58;;;;;;;5.66;59.00;100523.75;4362920;32;32809;-83
2022/12/02 05:28:52;;;;;;;1.50;1.40;;;;;;;5.51;59.14;100530.03;4379028;32;32325;-83
2022/12/02 05:31:20;;;;;;;0.85;0.85;;;;;;;5.36;59.44;100531.06;4367137;32;34632;-82
2022/12/02 05:33:47;;;;;;;1.00;0.95;;;;;;;5.38;59.35;100516.19;4356784;32;33393;-83
2022/12/02 05:36:15;;;;;;;7.65;3.60;;;;;;;5.42;58.89;100522.28;4360149;32;33985;-83
2022/12/02 05:38:43;;;;;;;1.17;1.17;;;;;;;5.45;58.83;100526.59;4369123;32;32059;-83
2022/12/02 05:41:10;;;;;;;2.05;1.85;;;;;;;5.48;58.66;100521.34;4355975;32;33158;-83
2022/12/02 05:43:40;;;;;;;0.93;0.90;;;;;;;5.65;58.18;100520.25;4355567;32;33915;-83
2022/12/02 05:46:15;;;;;;;0.80;0.80;;;;;;;5.19;59.49;100521.66;4356310;32;33977;-83
2022/12/02 05:48:43;;;;;;;1.80;1.70;;;;;;;5.35;59.18;100529.31;4369151;32;33496;-83
2022/12/02 05:51:14;;;;;;;1.05;0.95;;;;;;;5.46;58.92;100520.47;4371094;32;33422;-82
2022/12/02 05:53:42;;;;;;;1.45;1.35;;;;;;;5.44;58.84;100532.72;4347690;32;32457;-82
2022/12/02 05:56:25;;;;;;;0.45;0.45;;;;;;;5.46;58.68;100530.94;4361388;32;32852;-81
2022/12/02 05:58:52;;;;;;;;;;;;;;;5.66;58.05;100531.59;4363654;32;33369;-82
2022/12/02 06:01:39;;;;;;;1.40;1.40;;;;;;;5.35;58.73;100529.31;4367494;32;33697;-82
2022/12/02 06:04:14;;;;;;;1.20;1.10;;;;;;;5.34;58.79;100537.19;4357091;32;34660;-82
2022/12/02 06:06:41;;;;;;;0.35;0.35;;;;;;;5.32;59.17;100531.13;4367135;32;32839;-82
2022/12/02 06:09:17;;;;;;;0.65;0.65;;;;;;;5.28;59.03;100532.91;4359188;32;32164;-83
2022/12/02 06:11:46;;;;;;;0.30;0.30;;;;;;;5.27;59.27;100531.19;4359644;32;33017;-82
2022/12/02 06:14:19;;;;;;;0.80;0.75;;;;;;;5.36;59.38;100538.94;4349572;32;32909;-83
2022/12/02 06:16:51;;;;;;;3.10;1.45;;;;;;;5.01;60.42;100541.87;4361434;32;33064;-84
2022/12/02 06:19:39;;;;;;;0.22;0.22;;;;;;;5.33;59.65;100541.56;4359126;32;32428;-84
2022/12/02 06:22:17;;;;;;;1.35;1.25;;;;;;;5.32;59.20;100541.59;4361875;32;32413;-83
2022/12/02 06:24:46;;;;;;;2.37;2.17;;;;;;;5.50;58.20;100544.00;4345516;32;33130;-83
2022/12/02 06:27:15;;;;;;;0.22;0.22;;;;;;;5.47;58.10;100543.19;4358640;32;33081;-85
2022/12/02 06:29:53;;;;;;;1.27;1.17;;;;;;;5.18;58.97;100549.59;4361238;32;33847;-84
2022/12/02 06:32:22;;;;;;;3.72;1.62;;;;;;;5.26;59.00;100547.75;4360750;32;32190;-84
2022/12/02 06:34:51;;;;;;;0.32;0.32;;;;;;;5.06;60.19;100554.94;4373120;32;31716;-83
2022/12/02 06:37:20;;;;;;;0.47;0.47;;;;;;;4.96;60.24;100555.91;4371301;32;33273;-82
2022/12/02 06:39:54;;;;;;;3.55;2.45;;;;;;;5.23;59.78;100555.66;4368024;32;32521;-83
2022/12/02 06:42:41;;;;;;;0.25;0.25;;;;;;;5.53;58.61;100554.44;4372725;32;33722;-83
2022/12/02 06:45:28;;;;;;;0.40;0.40;;;;;;;5.48;58.75;100561.50;4370929;32;33400;-86
2022/12/02 06:48:18;;;;;;;5.47;1.95;;;;;;;5.69;58.06;100563.00;4361503;32;33911;-86
2022/12/02 06:50:47;;;;;;;1.17;1.05;;;;;;;5.61;58.25;100562.22;4363557;32;32805;-86
2022/12/02 06:53:24;;;;;;;1.80;1.70;;;;;;;5.89;57.46;100560.16;4372297;32;33898;-86
2022/12/02 06:56:03;;;;;;;2.12;1.75;;;;;;;5.65;57.78;100562.19;4370784;32;35610;-86
2022/12/02 06:58:44;;;;;;;3.03;1.23;;;;;;;5.60;58.36;100560.47;4359456;32;33075;-86
2022/12/02 07:01:20;;;;;;;3.47;3.20;;;;;;;5.63;58.70;100565.69;4372895;32;33037;-88
2022/12/02 07:04:04;;;;;;;0.80;0.80;;;;;;;5.28;59.33;100569.56;4370552;32;33363;-87
2022/12/02 07:06:34;;;;;;;2.20;2.03;;;;;;;5.55;58.58;100572.75;4364435;32;34296;-88
2022/12/02 07:09:17;;;;;;;2.60;2.25;;;;;;;5.58;58.40;100565.75;4363231;32;34279;-87
2022/12/02 07:11:51;;;;;;;1.73;1.58;;;;;;;5.45;58.83;100571.12;4386074;32;32541;-87
2022/12/02 07:14:38;;;;;;;1.00;1.00;;;;;;;5.33;59.20;100573.00;4346821;32;32134;-87
2022/12/02 07:17:22;;;;;;;1.98;1.87;;;;;;;5.89;57.07;100562.78;4381703;32;32270;-87
2022/12/02 07:19:57;;;;;;;1.17;0.77;;;;;;;5.86;57.08;100563.66;4373186;32;33398;-87
2022/12/02 07:22:35;;;;;;;0.90;0.90;;;;;;;5.74;57.62;100569.03;4376018;32;34054;-87
2022/12/02 07:25:08;;;;;;;0.28;0.28;;;;;;;5.59;58.00;100571.84;4357799;32;33730;-87
2022/12/02 07:27:39;;;;;;;1.25;1.02;;;;;;;5.48;58.78;100584.19;4359803;32;31552;-88
2022/12/02 07:30:23;;;;;;;0.88;0.88;;;;;;;5.74;57.76;100573.41;4365477;32;33145;-87
2022/12/02 07:32:51;;;;;;;3.12;2.35;;;;;;;5.88;56.93;100577.59;4361677;32;33255;-86
2022/12/02 07:35:19;;;;;;;0.85;0.85;;;;;;;5.19;59.27;100585.34;4372723;32;34036;-88
2022/12/02 07:37:48;;;;;;;1.33;1.33;;;;;;;5.77;57.28;100576.88;4361783;32;34577;-88
2022/12/02 07:40:17;;;;;;;0.28;0.28;;;;;;;5.35;58.40;100586.06;4364553;32;34780;-88
2022/12/02 07:42:44;;;;;;;2.47;2.28;;;;;;;5.56;57.63;100578.00;4363998;32;31585;-87
2022/12/02 07:45:15;;;;;;;1.75;1.65;;;;;;;5.78;57.23;100581.22;4359460;32;33245;-83
2022/12/02 07:47:43;;;;;;;3.40;1.92;;;;;;;5.74;57.35;100581.28;4362550;32;32887;-84
2022/12/02 07:50:13;;;;;;;1.10;1.00;;;;;;;5.63;57.70;100581.41;4357352;32;32839;-83
2022/12/02 07:52:40;;;;;;;0.65;0.65;;;;;;;5.60;57.07;100587.56;4357213;32;32419;-83
2022/12/02 07:55:08;;;;;;;0.30;0.30;;;;;;;5.25;58.17;100594.91;4358373;32;33780;-83
2022/12/02 07:57:37;;;;;;;4.00;3.05;;;;;;;5.57;57.24;100584.97;4359436;32;33218;-83
2022/12/02 08:00:07;;;;;;;0.28;0.28;;;;;;;5.12;58.74;100591.50;4383550;32;34143;-84
2022/12/02 08:02:38;;;;;;;6.72;2.37;;;;;;;5.11;58.98;100597.63;4375898;32;32238;-84
2022/12/02 08:05:06;;;;;;;0.57;0.57;;;;;;;5.08;58.79;100597.66;4358026;32;33159;-83
2022/12/02 08:07:34;;;;;;;3.55;3.25;;;;;;;4.92;59.48;100591.69;4367671;32;33574;-83
2022/12/02 08:10:02;;;;;;;14.65;3.95;;;;;;;4.86;59.52;100590.00;4364392;32;34623;-83
2022/12/02 08:12:30;;;;;;;0.77;0.77;;;;;;;5.40;58.28;100585.13;4357960;32;33225;-84
2022/12/02 08:14:57;;;;;;;1.98;1.77;;;;;;;4.97;59.22;100589.91;4359030;32;32745;-84
2022/12/02 08:17:25;;;;;;;0.57;0.57;;;;;;;4.63;60.15;100599.75;4369958;32;34390;-84
2022/12/02 08:19:54;;;;;;;1.33;1.33;;;;;;;4.74;59.85;100595.31;4377102;32;34297;-83
2022/12/02 08:22:21;;;;;;;1.87;1.20;;;;;;;4.95;59.57;100588.19;4372366;32;33121;-84
2022/12/02 08:24:49;;;;;;;0.68;0.68;;;;;;;4.91;59.33;100587.34;4356121;32;32974;-84
2022/12/02 08:27:17;;;;;;;0.90;0.90;;;;;;;4.94;59.30;100594.28;4369372;32;33874;-84
2022/12/02 08:29:45;;;;;;;2.03;1.87;;;;;;;5.22;58.48;100595.81;4369797;32;33652;-84
2022/12/02 08:32:12;;;;;;;0.62;0.62;;;;;;;5.32;58.60;100584.38;4372215;32;32228;-84
2022/12/02 08:34:40;;;;;;;0.10;0.10;;;;;;;5.47;58.08;100588.56;4364912;32;33874;-84
2022/12/02 08:37:08;;;;;;;3.55;1.83;;;;;;;5.70;58.34;100582.19;4372323;32;34688;-83
2022/12/02 08:39:36;;;;;;;2.80;2.55;;;;;;;5.68;57.63;100592.72;4365812;32;33341;-83
2022/12/02 08:42:04;;;;;;;1.25;1.25;;;;;;;5.57;58.02;100586.72;4384104;32;32965;-84
2022/12/02 08:44:32;;;;;;;1.67;1.58;;;;;;;5.52;58.40;100599.00;4377436;32;34328;-84
2022/12/02 08:46:59;;;;;;;0.90;0.90;;;;;;;5.58;58.13;100593.69;4360361;32;33748;-84
2022/12/02 08:49:27;;;;;;;0.98;0.98;;;;;;;5.50;58.93;100591.16;4368818;32;34060;-83
2022/12/02 08:51:55;;;;;;;5.50;2.47;;;;;;;5.82;58.46;100592.56;4383334;32;33482;-84
2022/12/02 08:54:22;;;;;;;1.25;1.23;;;;;;;5.69;58.76;100591.81;4369733;32;33219;-83
2022/12/02 08:56:50;;;;;;;3.08;2.80;;;;;;;5.19;60.24;100601.06;4367147;32;34080;-84
2022/12/02 08:59:18;;;;;;;2.83;2.62;;;;;;;5.50;59.85;100591.16;4357115;32;33780;-84
2022/12/02 09:01:46;;;;;;;2.78;1.27;;;;;;;5.74;59.07;100590.00;4371713;32;33094;-84
2022/12/02 09:04:16;;;;;;;2.45;1.83;;;;;;;5.86;59.22;100589.00;4365943;32;33522;-84
2022/12/02 09:06:43;;;;;;;5.82;2.25;;;;;;;5.65;59.76;100592.75;4368973;32;33342;-84
2022/12/02 09:09:11;;;;;;;5.20;4.65;;;;;;;5.83;59.82;100589.91;4370629;32;34006;-84
2022/12/02 09:11:39;;;;;;;1.65;1.30;;;;;;;6.16;58.40;100588.66;4370798;32;33215;-84
2022/12/02 09:14:07;;;;;;;2.12;2.03;;;;;;;5.83;58.31;100592.53;4377355;32;33835;-84
2022/12/02 09:16:35;;;;;;;2.42;2.28;;;;;;;5.72;58.34;100591.78;4373985;32;32973;-84
2022/12/02 09:19:03;;;;;;;0.43;0.43;;;;;;;5.71;59.03;100594.44;4356307;32;33227;-83
2022/12/02 09:21:30;;;;;;;1.60;1.52;;;;;;;5.96;58.39;100595.03;4377591;32;32796;-84
2022/12/02 09:23:58;;;;;;;1.08;1.02;;;;;;;5.45;59.39;100599.94;4371283;32;33896;-84
2022/12/02 09:26:26;;;;;;;1.95;1.85;;;;;;;5.58;59.58;100593.69;4368886;32;33189;-84
2022/12/02 09:28:53;;;;;;;0.65;0.65;;;;;;;5.24;60.85;100593.16;4357361;32;33008;-84
2022/12/02 09:31:21;;;;;;;2.03;1.90;;;;;;;5.57;60.15;100591.97;4373642;32;33010;-84
2022/12/02 09:33:49;;;;;;;1.60;1.55;;;;;;;5.61;60.03;100593.69;4373391;32;34237;-84
2022/12/02 09:36:16;;;;;;;1.30;1.20;;;;;;;5.47;59.61;100601.69;4359271;32;33729;-84
2022/12/02 09:38:44;;;;;;;0.93;0.88;;;;;;;5.88;58.16;100598.56;4360249;32;33883;-84
2022/12/02 09:41:12;;;;;;;0.47;0.47;;;;;;;5.76;58.21;100598.75;4359453;32;34081;-84
2022/12/02 09:43:41;;;;;;;2.03;1.90;;;;;;;5.90;57.26;100593.34;4370616;32;32804;-83
2022/12/02 09:46:08;;;;;;;4.87;2.15;;;;;;;5.75;58.84;100598.78;4370676;32;33944;-85
2022/12/02 09:48:37;;;;;;;0.43;0.43;;;;;;;5.88;58.67;100585.47;4371450;32;33599;-84
2022/12/02 09:51:04;;;;;;;0.40;0.40;;;;;;;5.67;58.63;100588.34;4361376;32;33468;-84
2022/12/02 09:53:36;;;;;;;0.90;0.80;;;;;;;5.68;59.28;100587.47;4372443;32;33521;-84
2022/12/02 09:56:05;;;;;;;1.73;1.62;;;;;;;5.35;60.15;100591.31;4358471;32;33901;-83
2022/12/02 09:58:33;;;;;;;2.55;1.65;;;;;;;5.45;60.49;100589.47;4359470;32;33552;-83
2022/12/02 10:01:00;;;;;;;2.95;2.28;;;;;;;5.92;59.41;100585.47;4362048;32;33757;-84
2022/12/02 10:03:28;;;;;;;2.03;1.30;;;;;;;5.32;60.55;100592.22;4361194;32;33387;-84
2022/12/02 10:05:59;;;;;;;0.52;0.52;;;;;;;5.35;61.35;100591.31;4371071;32;34170;-84
2022/12/02 10:08:27;;;;;;;0.17;0.17;;;;;;;5.65;60.61;100582.28;4365127;32;32610;-84
2022/12/02 10:10:59;;;;;;;2.93;2.63;;;;;;;5.51;61.01;100592.03;4373133;32;33392;-84
2022/12/02 10:13:27;;;;;;;3.20;1.12;;;;;;;5.47;61.40;100585.09;4366371;32;33199;-83
2022/12/02 10:15:55;;;;;;;0.93;0.93;;;;;;;5.71;60.85;100584.81;4372731;32;33632;-86
2022/12/02 10:18:26;;;;;;;2.92;1.83;;;;;;;5.70;60.42;100580.47;4373975;32;34315;-87
2022/12/02 10:20:54;;;;;;;0.20;0.20;;;;;;;5.58;60.37;100577.97;4379494;32;32929;-87
2022/12/02 10:23:24;;;;;;;6.50;2.95;;;;;;;5.84;60.59;100582.91;4361259;32;33244;-86
2022/12/02 10:26:12;;;;;;;7.35;1.95;;;;;;;5.70;60.38;100583.09;4373723;32;33339;-87
2022/12/02 10:28:41;;;;;;;2.05;0.93;;;;;;;5.69;60.86;100586.56;4361425;32;30555;-87
2022/12/02 10:31:13;;;;;;;3.45;3.00;;;;;;;5.49;61.01;100585.94;4373903;32;32248;-87
2022/12/02 10:33:52;;;;;;;1.60;1.48;;;;;;;6.13;59.33;100583.47;4355511;32;34420;-87
2022/12/02 10:36:40;;;;;;;0.93;0.75;;;;;;;5.93;59.77;100574.97;4357368;32;32993;-86
2022/12/02 10:39:28;;;;;;;0.20;0.20;;;;;;;5.68;61.31;100584.84;4359714;32;32868;-84
2022/12/02 10:42:06;;;;;;;2.72;2.53;;;;;;;5.53;61.83;100579.78;4375991;32;31926;-86
2022/12/02 10:44:41;;;;;;;1.00;0.90;;;;;;;5.43;63.13;100583.38;4373151;32;33049;-86
2022/12/02 10:47:09;;;;;;;0.95;0.95;;;;;;;5.67;62.63;100577.88;4385226;32;33636;-86
2022/12/02 10:49:37;;;;;;;3.25;1.17;;;;;;;6.00;61.55;100573.16;4357279;32;34435;-86
2022/12/02 10:52:10;;;;;;;1.80;1.70;;;;;;;5.75;62.02;100569.94;4371850;32;34337;-86
2022/12/02 10:54:41;;;;;;;2.17;2.05;;;;;;;5.68;62.47;100576.13;4364107;32;34374;-86
2022/12/02 10:57:31;;;;;;;0.30;0.30;;;;;;;5.83;61.82;100568.94;4364221;32;33282;-87
2022/12/02 11:00:17;;;;;;;2.58;2.45;;;;;;;5.66;62.37;100570.91;4347693;32;33996;-86
2022/12/02 11:02:51;;;;;;;1.70;1.58;;;;;;;5.70;62.35;100574.34;4366666;32;33376;-86
2022/12/02 11:05:23;;;;;;;0.45;0.40;;;;;;;5.78;62.96;100576.00;4372370;32;33305;-86
2022/12/02 11:08:04;;;;;;;2.92;1.95;;;;;;;6.34;61.38;100563.94;4371421;32;33063;-86
2022/12/02 11:10:37;;;;;;;1.70;1.60;;;;;;;6.13;62.36;100559.00;4368726;32;34554;-86
2022/12/02 11:13:06;;;;;;;3.28;3.03;;;;;;;6.40;61.53;100555.97;4364106;32;32963;-86
2022/12/02 11:15:35;;;;;;;2.08;1.25;;;;;;;6.61;60.70;100560.06;4348008;32;32607;-87
2022/12/02 11:18:05;;;;;;;3.17;2.87;;;;;;;6.57;60.65;100565.38;4369312;32;33502;-86
2022/12/02 11:20:44;;;;;;;1.85;1.75;;;;;;;6.32;61.44;100557.00;4360458;32;32737;-86
2022/12/02 11:23:19;;;;;;;3.83;1.33;;;;;;;6.24;61.62;100554.47;4363575;32;33647;-86
2022/12/02 11:25:49;;;;;;;4.10;2.30;;;;;;;6.23;62.15;100558.00;4385506;32;32041;-86
2022/12/02 11:28:17;;;;;;;0.80;0.70;;;;;;;6.01;62.80;100559.16;4362088;32;30608;-86
2022/12/02 11:30:46;;;;;;;0.35;0.35;;;;;;;6.04;63.01;100569.63;4372991;32;34276;-86
2022/12/02 11:33:49;;;;;;;0.73;0.73;;;;;;;6.53;61.44;100558.44;4375274;32;32730;-86
2022/12/02 11:36:22;;;;;;;0.98;0.98;;;;;;;6.15;63.08;100557.22;4382434;32;32766;-86
2022/12/02 11:38:50;;;;;;;3.72;1.95;;;;;;;6.08;63.29;100552.97;4354381;32;33083;-86
2022/12/02 11:41:25;;;;;;;1.33;1.33;;;;;;;6.07;63.23;100553.81;4374617;32;33409;-86
2022/12/02 11:43:55;;;;;;;6.20;2.00;;;;;;;5.99;63.55;100556.56;4373603;32;33208;-86
2022/12/02 11:46:37;;;;;;;0.47;0.47;;;;;;;5.81;63.72;100555.00;4370968;32;33531;-86
2022/12/02 11:49:41;;;;;;;1.85;1.75;;;;;;;6.20;62.58;100551.91;4372903;32;34763;-87
2022/12/02 11:52:10;;;;;;;3.30;2.25;;;;;;;6.11;62.84;100547.66;4332134;32;32531;-86
2022/12/02 11:54:45;;;;;;;1.10;1.10;;;;;;;6.22;62.51;100556.25;4374912;32;33904;-86
2022/12/02 11:57:28;;;;;;;1.37;1.30;;;;;;;5.87;64.42;100544.44;4374982;32;32724;-87